createdAt,value
2023-04-14T00:01:26.057Z,96.39
2023-04-14T00:11:26.328Z,96.44
2023-04-14T00:21:26.453Z,96.64
2023-04-14T00:31:26.607Z,96.69
2023-04-14T00:41:26.584Z,97.00
2023-04-14T00:51:26.797Z,97.10
2023-04-14T01:01:27.068Z,97.00
2023-04-14T01:11:27.235Z,96.69
2023-04-14T01:21:27.655Z,96.69
2023-04-14T01:31:27.725Z,96.79
2023-04-14T01:41:27.743Z,97.10
2023-04-14T01:51:27.970Z,97.52
2023-04-14T02:01:28.232Z,97.19
2023-04-14T02:11:28.421Z,97.39
2023-04-14T02:21:28.635Z,97.29
2023-04-14T02:31:28.830Z,97.60
2023-04-14T02:41:29.051Z,97.34
2023-04-14T02:51:29.266Z,97.65
2023-04-14T03:01:29.513Z,97.13
2023-04-14T03:11:29.704Z,97.24
2023-04-14T03:21:29.941Z,97.39
2023-04-14T03:31:30.168Z,98.12
2023-04-14T03:41:30.334Z,98.43
2023-04-14T03:51:30.534Z,98.33
2023-04-14T04:01:30.738Z,98.07
2023-04-14T04:11:30.928Z,97.86
2023-04-14T04:21:31.135Z,97.96
2023-04-14T04:31:31.362Z,97.03
2023-04-14T04:41:31.550Z,96.15
2023-04-14T04:51:31.748Z,96.05
2023-04-14T05:01:32.064Z,95.90
2023-04-14T05:11:32.039Z,96.21
2023-04-14T05:21:32.252Z,96.27
2023-04-14T05:31:32.577Z,96.69
2023-04-14T05:41:32.523Z,96.21
2023-04-14T05:51:32.736Z,96.31
2023-04-14T06:01:32.937Z,96.52
2023-04-14T06:11:33.162Z,97.14
2023-04-14T06:21:33.334Z,96.94
2023-04-14T06:31:33.592Z,96.95
2023-04-14T06:41:33.760Z,96.58
2023-04-14T06:51:33.987Z,97.20
2023-04-14T07:01:34.253Z,96.95
2023-04-14T07:11:34.444Z,96.85
2023-04-14T07:21:34.625Z,97.28
2023-04-14T07:31:34.882Z,97.13
2023-04-14T07:41:34.923Z,96.98
2023-04-14T07:51:35.148Z,97.34
2023-04-14T08:01:35.340Z,97.09
2023-04-14T08:11:35.629Z,97.36
2023-04-14T08:21:35.632Z,96.70
2023-04-14T08:31:35.900Z,95.48
2023-04-14T08:41:36.073Z,90.90
2023-04-14T08:51:36.314Z,91.27
2023-04-14T09:01:36.632Z,84.89
2023-04-14T09:11:36.643Z,86.19
2023-04-14T09:21:53.600Z,80.60
2023-04-14T09:31:38.236Z,76.07
2023-04-14T09:41:37.254Z,76.86
2023-04-14T09:51:37.460Z,71.69
2023-04-14T10:01:37.666Z,70.32
2023-04-14T10:11:37.841Z,69.98
2023-04-14T10:21:38.067Z,72.61
2023-04-14T10:31:38.340Z,68.01
2023-04-14T10:41:38.512Z,64.36
2023-04-14T10:51:38.706Z,63.76
2023-04-14T11:01:39.002Z,60.39
2023-04-14T11:11:39.043Z,60.96
2023-04-14T11:21:39.272Z,63.75
2023-04-14T11:31:39.522Z,58.54
2023-04-14T11:41:39.720Z,55.51
2023-04-14T11:51:39.941Z,55.51
2023-04-14T12:01:40.300Z,51.81
2023-04-14T12:11:40.290Z,49.80
2023-04-14T12:21:40.506Z,49.83
2023-04-14T12:31:40.745Z,49.65
2023-04-14T12:41:40.931Z,47.94
2023-04-14T12:51:41.328Z,45.20
2023-04-14T13:01:41.324Z,44.65
2023-04-14T13:11:41.519Z,47.45
2023-04-14T13:21:41.706Z,43.61
2023-04-14T13:31:42.027Z,44.30
2023-04-14T13:41:41.992Z,44.60
2023-04-14T13:51:42.197Z,47.77
2023-04-14T14:01:42.438Z,44.45
2023-04-14T14:11:42.624Z,46.36
2023-04-14T14:21:42.822Z,48.80
2023-04-14T14:31:43.082Z,42.00
2023-04-14T14:41:43.245Z,41.56
2023-04-14T14:51:43.458Z,41.28
2023-04-14T15:01:43.681Z,41.49
2023-04-14T15:11:43.882Z,38.70
2023-04-14T15:21:44.112Z,39.79
2023-04-14T15:31:44.369Z,38.79
2023-04-14T15:41:44.584Z,39.57
2023-04-14T15:51:44.871Z,42.21
2023-04-14T16:01:44.915Z,41.27
2023-04-14T16:11:44.997Z,41.07
2023-04-14T16:21:45.225Z,40.92
2023-04-14T16:31:45.542Z,41.31
2023-04-14T16:41:45.736Z,40.70
2023-04-14T16:51:45.923Z,46.34
2023-04-14T17:01:46.236Z,47.58
2023-04-14T17:11:46.284Z,47.08
2023-04-14T17:21:46.539Z,47.12
2023-04-14T17:31:46.872Z,47.27
2023-04-14T17:41:46.979Z,50.68
2023-04-14T17:51:47.240Z,50.91
2023-04-14T18:01:47.486Z,53.49
2023-04-14T18:11:48.113Z,55.79
2023-04-14T18:21:47.599Z,59.94
2023-04-14T18:31:47.990Z,60.07
2023-04-14T18:41:47.876Z,62.65
2023-04-14T18:51:48.082Z,64.53
2023-04-14T19:01:48.675Z,65.08
2023-04-14T19:11:48.632Z,66.91
2023-04-14T19:21:48.844Z,67.57
2023-04-14T19:31:53.391Z,66.22
2023-04-14T19:41:48.894Z,64.99
2023-04-14T19:51:49.191Z,64.24
2023-04-14T20:01:49.475Z,65.40
2023-04-14T20:11:49.584Z,66.97
2023-04-14T20:21:49.585Z,66.18
2023-04-14T20:31:49.899Z,69.48
2023-04-14T20:41:49.780Z,67.86
2023-04-14T20:51:50.212Z,70.68
2023-04-14T21:01:50.200Z,71.81
2023-04-14T21:12:16.025Z,72.16
2023-04-14T21:21:51.379Z,72.99
2023-04-14T21:31:50.622Z,73.12
2023-04-14T21:41:50.787Z,72.95
2023-04-14T21:51:50.968Z,72.74
2023-04-14T22:01:51.215Z,72.64
2023-04-14T22:11:51.407Z,72.53
2023-04-14T22:21:51.573Z,72.78
2023-04-14T22:31:51.768Z,73.19
2023-04-14T22:41:52.002Z,72.16
2023-04-14T22:51:52.230Z,72.91
2023-04-14T23:01:52.467Z,71.88
2023-04-14T23:11:52.672Z,71.81
2023-04-14T23:21:52.883Z,72.02
2023-04-14T23:31:53.100Z,71.70
2023-04-14T23:41:53.276Z,72.05
2023-04-14T23:51:53.648Z,72.15
